Terminal Aerodrome Forecast
Issued by NWS Atlanta, GA

Home | Current Version | Previous Version | Text Only | Print | Product List | Glossary On
Versions: 1 2 3 4 5 6 7 8 9 10 11 12 13 14 15
000
FTUS42 KFFC 261937 AAA
TAFCSG
TAF AMD
KCSG 261937Z 2620/2718 19010G15KT P6SM FEW045 FEW250
     FM262200 17010G17KT P6SM FEW045 SCT250
     FM270200 17008KT P6SM BKN250
     FM270900 16010KT P6SM VCSH SCT015 OVC025
     FM271200 15010KT P6SM -SHRA BKN015 PROB30 2713/2717 VRB15G30KT
      5SM -TSRA BKN015CB=

USA.gov is the U.S. government's official web portal to all federal, state and local government web resources and services.